Flight Track Log - Related Links

Times and Time Zones

All times are in EST time to prevent confusion due to time zone crossing. See the SWA3993 flight status page for this flight to view local times or setup timezone preferences in your user account.


Time Position Orientation Groundspeed Altitude Reporting Facility
EST Latitude Longitude Course Direction KTS MPH feet Rate Location/Type
Mon 08:04:27 PM 29.5442 -98.4500 51° Northeast 158 182 1,700  Level Houston Center
Mon 08:05:03 PM 29.5622 -98.4247 51° Northeast 163 188 2,700 1,714 Climbing Houston Center
Mon 08:06:05 PM 29.6181 -98.3928 26° Northeast 257 296 4,500 2,439 Climbing Houston Center
Mon 08:07:06 PM 29.6822 -98.4422 326° Northwest 283 326 7,700 3,300 Climbing Houston Center
Mon 08:07:45 PM 29.7092 -98.4869 305° West 302 348 10,000 2,848 Climbing Houston Center
Mon 08:08:45 PM 29.7569 -98.5739 302° West 313 360 12,400 2,678 Climbing Houston Center
Mon 08:09:46 PM 29.8106 -98.6683 303° West 340 391 15,400 3,150 Climbing Houston Center
Mon 08:10:45 PM 29.8678 -98.7681 304° West 361 415 18,700 2,672 Climbing Houston Center
Mon 08:11:45 PM 29.9294 -98.8656 306° West 372 428 20,700 2,430 Climbing Houston Center
Mon 08:12:46 PM 30.0014 -98.9639 310° West 391 450 23,600 2,400 Climbing Houston Center
Mon 08:13:45 PM 30.0583 -99.0686 302° West 391 450 25,500 2,370 Climbing Houston Center
Mon 08:14:45 PM 30.1022 -99.1797 295° West 385 443 28,300 2,000 Climbing Houston Center
Mon 08:15:45 PM 30.1522 -99.2892 298° West 380 437 29,500 1,100 Climbing Houston Center
Mon 08:16:45 PM 30.2000 -99.4056 295° West 390 449 30,500 942 Climbing Houston Center
Mon 08:17:46 PM 30.2492 -99.5267 295° West 407 468 31,400 1,339 Climbing Houston Center
Mon 08:18:46 PM 30.3025 -99.6511 296° West 420 483 33,200 2,000 Climbing Houston Center
Mon 08:19:46 PM 30.3492 -99.7772 293° West 425 489 35,400 1,866 Climbing Houston Center
Mon 08:20:45 PM 30.3967 -99.8844 297° West 425 489 36,900 1,311 Climbing Houston Center
Mon 08:21:45 PM 30.4400 -99.9961 294° West 408 470 38,000 550 Climbing Houston Center
Mon 08:22:45 PM 30.4892 -100.1108 296° West 396 456 38,000  Level Houston Center
Mon 08:23:45 PM 30.5381 -100.2281 296° West 401 461 38,000  Level Houston Center
Mon 08:24:45 PM 30.5847 -100.3453 295° West 401 461 38,000  Level Houston Center
Mon 08:25:45 PM 30.6311 -100.4625 295° West 401 461 38,000  Level Houston Center
Mon 08:26:45 PM 30.6781 -100.5753 296° West 395 455 38,000  Level Houston Center
Mon 08:27:45 PM 30.7225 -100.6900 294° West 395 455 38,000  Level Houston Center
Mon 08:28:45 PM 30.7689 -100.8050 295° West 395 455 38,000  Level Houston Center
Mon 08:29:45 PM 30.8147 -100.9253 294° West 401 461 38,000  Level Houston Center
Mon 08:30:45 PM 30.8614 -101.0358 296° West 396 456 38,000  Level Houston Center
Mon 08:31:45 PM 30.9053 -101.1508 294° West 401 461 38,000  Level Houston Center
Mon 08:32:46 PM 30.9494 -101.2639 295° West 395 455 38,000  Level Houston Center
Mon 08:33:45 PM 30.9969 -101.3844 295° West 383 441 38,000  Level Houston Center
Mon 08:34:08 PM 31.0150 -101.4244 298° West 387 445 38,000  Level Albuquerque Center
Mon 08:35:10 PM 31.0594 -101.5364 295° West 384 442 38,000  Level Albuquerque Center
Mon 08:36:11 PM 31.1025 -101.6486 294° West 381 438 38,000  Level Albuquerque Center
Mon 08:37:12 PM 31.1456 -101.7594 294° West 378 435 38,000  Level Albuquerque Center
Mon 08:38:13 PM 31.1878 -101.8692 294° West 374 430 38,000  Level Albuquerque Center
Mon 08:38:50 PM 31.2119 -101.9336 294° West 377 434 38,000  Level Albuquerque Center
Mon 08:39:51 PM 31.2558 -102.0483 294° West 384 442 38,000  Level Albuquerque Center
Mon 08:40:53 PM 31.2992 -102.1611 294° West 382 440 38,000  Level Albuquerque Center
Mon 08:41:54 PM 31.3511 -102.2958 294° West 380 437 38,000  Level Albuquerque Center
Mon 08:42:55 PM 31.3942 -102.4094 294° West 381 438 38,000  Level Albuquerque Center
Mon 08:43:56 PM 31.4372 -102.5225 294° West 380 437 38,000  Level Albuquerque Center
Mon 08:44:57 PM 31.4764 -102.6247 294° West 377 434 38,000  Level Albuquerque Center
Mon 08:45:59 PM 31.5194 -102.7378 294° West 379 436 38,000  Level Albuquerque Center
Mon 08:47:00 PM 31.5700 -102.8739 294° West 380 437 38,000  Level Albuquerque Center
Mon 08:48:01 PM 31.6131 -102.9869 294° West 381 438 38,000  Level Albuquerque Center
Mon 08:49:02 PM 31.6547 -103.0992 294° West 379 436 38,000  Level Albuquerque Center
Mon 08:50:03 PM 31.6958 -103.2103 294° West 374 430 38,000  Level Albuquerque Center
Mon 08:51:05 PM 31.7378 -103.3228 294° West 375 432 38,000  Level Albuquerque Center
Mon 08:52:06 PM 31.7794 -103.4358 293° West 376 433 38,000  Level Albuquerque Center
Mon 08:53:07 PM 31.8256 -103.5603 294° West 377 434 38,000  Level Albuquerque Center
Mon 08:54:08 PM 31.8672 -103.6731 294° West 376 433 38,000  Level Albuquerque Center
Mon 08:55:09 PM 31.9089 -103.7861 293° West 377 434 38,000  Level Albuquerque Center
Mon 08:56:11 PM 31.9514 -103.8986 294° West 377 434 38,000  Level Albuquerque Center
Mon 08:57:12 PM 31.9922 -104.0097 293° West 373 429 38,000  Level Albuquerque Center
Mon 08:58:13 PM 32.0350 -104.1292 293° West 371 427 38,000  Level Albuquerque Center
Mon 08:59:14 PM 32.0750 -104.2383 293° West 368 423 38,000  Level Albuquerque Center
Mon 09:00:15 PM 32.1150 -104.3497 293° West 369 425 38,000  Level Albuquerque Center
Mon 09:01:17 PM 32.1556 -104.4603 293° West 369 425 38,000  Level Albuquerque Center
Mon 09:02:18 PM 32.1950 -104.5719 293° West 370 426 38,000  Level Albuquerque Center
Mon 09:03:19 PM 32.2358 -104.6858 293° West 373 429 38,000  Level Albuquerque Center
Mon 09:04:20 PM 32.2753 -104.7944 293° West 369 425 38,000  Level Albuquerque Center
Mon 09:05:21 PM 32.3169 -104.9108 293° West 380 437 38,000  Level Albuquerque Center
Mon 09:06:23 PM 32.3653 -105.0497 292° West 382 440 38,000  Level Albuquerque Center
Mon 09:07:24 PM 32.4056 -105.1622 293° West 377 434 38,000  Level Albuquerque Center
Mon 09:08:25 PM 32.4444 -105.2794 291° West 380 437 38,000  Level Albuquerque Center
Mon 09:09:26 PM 32.4850 -105.3964 292° West 383 441 38,000  Level Albuquerque Center
Mon 09:10:27 PM 32.5264 -105.5133 293° West 385 443 38,000  Level Albuquerque Center
Mon 09:11:29 PM 32.5675 -105.6297 293° West 385 443 38,000  Level Albuquerque Center
Mon 09:12:30 PM 32.6075 -105.7461 292° West 384 442 38,000  Level Albuquerque Center
Mon 09:13:31 PM 32.6469 -105.8631 292° West 383 441 38,000  Level Albuquerque Center
Mon 09:14:32 PM 32.6867 -105.9750 293° West 378 435 38,000  Level Albuquerque Center
Mon 09:15:33 PM 32.7258 -106.0908 292° West 376 433 38,000 -49 Level Albuquerque Center
Mon 09:16:34 PM 32.7717 -106.2253 292° West 373 429 37,900 -49 Descending Albuquerque Center
Mon 09:17:36 PM 32.8125 -106.3428 292° West 377 434 37,900 49 Level Albuquerque Center
Mon 09:18:37 PM 32.8533 -106.4606 292° West 383 441 38,000 49 Climbing Albuquerque Center
Mon 09:19:38 PM 32.8919 -106.5764 292° West 382 440 38,000  Level Albuquerque Center
Mon 09:20:39 PM 32.9311 -106.6961 291° West 387 445 38,000  Level Albuquerque Center
Mon 09:21:40 PM 32.9728 -106.8197 292° West 399 459 38,000  Level Albuquerque Center
Mon 09:22:41 PM 33.0139 -106.9428 292° West 403 464 38,000  Level Albuquerque Center
Mon 09:23:42 PM 33.0542 -107.0628 292° West 399 459 38,000  Level Albuquerque Center
Mon 09:24:43 PM 33.1022 -107.2086 292° West 397 457 38,000  Level Albuquerque Center
Mon 09:25:45 PM 33.1417 -107.3289 291° West 395 455 38,000  Level Albuquerque Center
Mon 09:26:46 PM 33.1817 -107.4503 292° West 396 456 38,000  Level Albuquerque Center
Mon 09:27:47 PM 33.2217 -107.5708 292° West 395 455 38,000  Level Albuquerque Center
Mon 09:28:48 PM 33.2600 -107.6911 291° West 392 451 38,000  Level Albuquerque Center
Mon 09:29:49 PM 33.2997 -107.8114 292° West 391 450 38,000  Level Albuquerque Center
Mon 09:30:50 PM 33.3389 -107.9286 292° West 387 445 38,000  Level Albuquerque Center
Mon 09:31:51 PM 33.3764 -108.0467 291° West 383 441 38,000  Level Albuquerque Center
Mon 09:32:53 PM 33.4217 -108.1883 291° West 386 444 38,000  Level Albuquerque Center
Mon 09:33:54 PM 33.4600 -108.3081 291° West 389 448 38,000  Level Albuquerque Center
Mon 09:34:55 PM 33.4989 -108.4286 291° West 392 451 38,000  Level Albuquerque Center
Mon 09:35:56 PM 33.5378 -108.5519 291° West 398 458 38,000  Level Albuquerque Center
Mon 09:36:57 PM 33.5778 -108.6767 291° West 404 465 38,000  Level Albuquerque Center
Mon 09:37:58 PM 33.6178 -108.8017 291° West 406 467 38,000  Level Albuquerque Center
Mon 09:38:59 PM 33.6567 -108.9286 290° West 409 471 38,000  Level Albuquerque Center
Mon 09:40:01 PM 33.7050 -109.0806 291° West 411 473 38,000  Level Albuquerque Center
Mon 09:41:02 PM 33.7444 -109.2083 290° West 412 474 38,000  Level Albuquerque Center
Mon 09:42:03 PM 33.7847 -109.3367 291° West 414 476 38,000  Level Albuquerque Center
Mon 09:43:04 PM 33.8233 -109.4617 290° West 411 473 38,000  Level Albuquerque Center
Mon 09:44:05 PM 33.8608 -109.5847 290° West 403 464 38,000  Level Albuquerque Center
Mon 09:45:06 PM 33.8983 -109.7100 290° West 401 461 38,000  Level Albuquerque Center
Mon 09:46:07 PM 33.9450 -109.8589 291° West 401 461 38,000  Level Albuquerque Center
Mon 09:47:08 PM 33.9825 -109.9844 290° West 402 463 38,000  Level Albuquerque Center
Mon 09:48:09 PM 34.0200 -110.1125 289° West 406 467 38,000  Level Albuquerque Center
Mon 09:49:11 PM 34.0592 -110.2378 291° West 405 466 38,000  Level Albuquerque Center
Mon 09:50:12 PM 34.0967 -110.3650 290° West 406 467 38,000  Level Albuquerque Center
Mon 09:51:13 PM 34.1331 -110.4958 289° West 413 475 38,000  Level Albuquerque Center
Mon 09:52:14 PM 34.1689 -110.6239 289° West 409 471 38,000  Level Albuquerque Center
Mon 09:53:15 PM 34.2142 -110.7717 290° West 408 470 38,000  Level Albuquerque Center
Mon 09:54:16 PM 34.2517 -110.9003 289° West 408 470 38,000  Level Albuquerque Center
Mon 09:55:17 PM 34.2889 -111.0283 289° West 407 468 38,000  Level Albuquerque Center
Mon 09:56:18 PM 34.3258 -111.1564 289° West 406 467 38,000  Level Albuquerque Center
Mon 09:57:19 PM 34.3628 -111.2836 289° West 404 465 38,000  Level Albuquerque Center
Mon 09:58:20 PM 34.3994 -111.4106 289° West 403 464 38,000  Level Albuquerque Center
Mon 09:59:21 PM 34.4369 -111.5383 290° West 404 465 38,000  Level Albuquerque Center
Mon 10:00:22 PM 34.4725 -111.6678 288° West 406 467 38,000  Level Albuquerque Center
Mon 10:01:23 PM 34.5172 -111.8225 289° West 408 470 38,000  Level Albuquerque Center
Mon 10:02:24 PM 34.5539 -111.9531 289° West 410 472 38,000  Level Albuquerque Center
Mon 10:03:25 PM 34.5914 -112.0853 289° West 414 476 38,000  Level Albuquerque Center
Mon 10:05:27 PM 34.6700 -112.3450 290° West 412 474 38,000  Level Albuquerque Center
Mon 10:06:28 PM 34.7208 -112.4722 296° West 409 471 38,000  Level Albuquerque Center
Mon 10:07:29 PM 34.7681 -112.5956 295° West 404 465 38,000  Level Albuquerque Center
Mon 10:08:30 PM 34.8139 -112.7186 294° West 401 461 38,000  Level Albuquerque Center
Mon 10:09:31 PM 34.8608 -112.8422 295° West 401 461 38,000  Level Albuquerque Center
Mon 10:10:32 PM 34.9067 -112.9656 294° West 400 460 38,000 -787 Level Albuquerque Center
Mon 10:11:33 PM 34.9528 -113.0886 295° West 398 458 36,400 -2,262 Descending Albuquerque Center
Mon 10:12:34 PM 34.9981 -113.2106 294° West 395 455 33,400 -2,852 Descending Albuquerque Center
Mon 10:13:35 PM 35.0422 -113.3361 293° West 397 457 30,600 -2,040 Descending Albuquerque Center
Mon 10:14:14 PM 35.0700 -113.4092 295° West 395 455 30,000 -360 Descending Los Angeles Center
Mon 10:15:15 PM 35.1200 -113.5461 294° West 373 429 30,000 -49 Level Los Angeles Center
Mon 10:16:16 PM 35.1617 -113.6606 294° West 369 425 29,900 -1,131 Descending Los Angeles Center
Mon 10:17:17 PM 35.2028 -113.7736 294° West 367 422 27,700 -2,115 Descending Los Angeles Center
Mon 10:18:18 PM 35.2428 -113.8825 294° West 358 412 25,600 -2,016 Descending Los Angeles Center
Mon 10:19:19 PM 35.2967 -113.9686 307° West 347 399 23,600 -2,016 Descending Los Angeles Center
Mon 10:20:20 PM 35.3675 -114.0342 323° Northwest 323 372 21,500 -1,967 Descending Los Angeles Center
Mon 10:21:21 PM 35.4353 -114.0972 323° Northwest 310 357 19,600 -1,701 Descending Los Angeles Center
Mon 10:22:34 PM 35.5083 -114.1644 323° Northwest 312 359 17,700 -2,149 Descending Los Angeles Center
Mon 10:23:35 PM 35.6094 -114.2597 323° Northwest 329 379 14,800 -2,640 Descending Los Angeles Center
Mon 10:24:14 PM 35.6575 -114.3042 323° Northwest 331 381 13,300 -2,262 Descending Los Angeles Center
Mon 10:24:36 PM 35.6825 -114.3278 323° Northwest 330 380 12,500 -1,395 Descending Los Angeles Center
Mon 10:24:57 PM 35.7064 -114.3483 325° Northwest 324 373 12,300 -968 Descending Los Angeles Center
Mon 10:25:38 PM 35.7486 -114.3917 320° Northwest 315 362 11,500 -1,075 Descending Los Angeles Center
Mon 10:26:04 PM 35.7736 -114.4158 322° Northwest 290 334 11,100 -984 Descending Los Angeles Center
Mon 10:26:39 PM 35.8056 -114.4519 317° Northwest 279 321 10,500 -1,100 Descending Los Angeles Center
Mon 10:27:04 PM 35.8331 -114.4783 322° Northwest 263 303 10,000 -984 Descending Los Angeles Center
Mon 10:27:40 PM 35.8603 -114.5089 318° Northwest 262 302 9,500 -927 Descending Los Angeles Center
Mon 10:28:54 PM 35.9328 -114.5856 319° Northwest 269 310 8,300 -672 Descending Los Angeles Center
Mon 10:29:54 PM 35.9642 -114.6681 295° West 269 310 8,000 -198 Descending Los Angeles Center
Mon 10:30:55 PM 35.9975 -114.7500 297° West 256 295 7,900 -382 Descending Los Angeles Center
Mon 10:31:44 PM 36.0156 -114.7956 296° West 239 275 7,300 -896 Descending Los Angeles Center
Mon 10:32:02 PM 36.0239 -114.8211 292° West 211 243 6,900 -689 Descending Los Angeles Center
Mon 10:32:45 PM 36.0378 -114.8542 297° West 209 241 6,600 -590 Descending Los Angeles Center
Mon 10:33:03 PM 36.0456 -114.8803 290° West 186 214 6,300 -871 Descending Los Angeles Center
Mon 10:33:47 PM 36.0572 -114.9111 295° West 190 219 5,700 -1,075 Descending Los Angeles Center
Mon 10:34:10 PM 36.0644 -114.9458 284° West 181 208 5,100 -1,279 Descending Los Angeles Center
Mon 10:34:48 PM 36.0711 -114.9828 283° West 181 208 4,400 -1,046 Descending Los Angeles Center
Mon 10:35:59 PM 36.0731 -115.0547 272° West 167 192 3,200 -878 Descending Los Angeles Center
Mon 10:36:51 PM 36.0744 -115.0931 273° West 160 184 2,600 -637 Descending Los Angeles Center
Mon 10:37:52 PM 36.0742 -115.1369 270° West 140 161 2,000 -246 Descending Los Angeles Center
Mon 10:38:53 PM 36.0778 -115.1464 295° West 88 101 2,100 49 Climbing Los Angeles Center
Mon 10:39:54 PM 36.0781 -115.1428 85° East 39 45 2,100  Level Los Angeles Center
Mon 10:40:56 PM 36.0797 -115.1472 295° West 25 29 2,100  Level Los Angeles Center
Mon 10:41:57 PM 36.0811 -115.1467 18° North 15 17 2,100  Level Los Angeles Center
Mon 10:42:58 PM 36.0806 -115.1469 202° Southwest 6 7 2,100  Level Los Angeles Center
Mon 10:43:59 PM 36.0808 -115.1467 39° Northeast 3 3 2,100  Level Los Angeles Center

Login

Don't have an account? Register now (free) for customized features, flight alerts, and more!